»·PEaware :: N544JL L52-L88

N544JL :: L52-L88

FLIGHT INFORMATION

Flight Status: Arrived
Operator: Privately registered:
United States
More flights under this callsign
Pilot: Brent M. (20569)
Aircraft: CSA SportCruiser
(CRUZ)
More flights by this aircraft type
Origin: L52 Oceano Co
United States
Destination: L88 New Cuyama
United States
More flights between these airports :: More routes between these airports
Route:
File this flight plan on PilotEdge
Remarks:
Altitude:
(Current/Filed)
5,500ft
Speed:
(Current/Filed)
110kts
Departed: 25-Sep-18 08:20 PM
Arrived: 25-Sep-18 08:54 PM
Distance/Time
Traveled:
47nm/0:34
Distance/Time
To Go:
Arrived

Flight Plot

Page will automatically refresh every two minutes.


Map Options




Map Legend


Flown Route
Filed Route
Departure Airport
Arrival Airport
Navaid (VOR, NDB)
Fix

Horizontal Profiles

Position Reports

Time Latitude Longitude Heading Altitude Ground
Speed
25-Sep-18 19:27 35.103159 -120.624188 214 16ft 0kts
25-Sep-18 19:28 35.103159 -120.624188 214 16ft 0kts
25-Sep-18 19:29 35.103159 -120.624188 214 16ft 0kts
25-Sep-18 19:30 35.103159 -120.624188 214 16ft 0kts
25-Sep-18 19:31 35.103159 -120.624188 214 16ft 0kts
25-Sep-18 19:32 35.103159 -120.624188 214 16ft 0kts
25-Sep-18 19:33 35.103159 -120.624188 214 16ft 0kts
25-Sep-18 19:34 35.103159 -120.624188 214 16ft 0kts
25-Sep-18 19:35 35.103159 -120.624188 214 16ft 0kts
25-Sep-18 19:36 35.103159 -120.624188 214 16ft 0kts
25-Sep-18 19:37 35.103159 -120.624188 214 16ft 0kts
25-Sep-18 19:38 35.103159 -120.624188 214 16ft 0kts
25-Sep-18 19:39 35.103159 -120.624188 214 16ft 0kts
25-Sep-18 19:40 35.103159 -120.624188 214 16ft 0kts
25-Sep-18 19:41 35.103159 -120.624188 214 16ft 0kts
25-Sep-18 19:42 35.103159 -120.624188 214 16ft 0kts
25-Sep-18 19:43 35.103159 -120.624188 214 16ft 0kts
25-Sep-18 19:44 35.103159 -120.624188 214 16ft 0kts
25-Sep-18 19:45 35.103159 -120.624188 214 16ft 0kts
25-Sep-18 19:46 35.103159 -120.624188 214 16ft 0kts
25-Sep-18 19:47 35.103159 -120.624188 214 16ft 0kts
25-Sep-18 19:48 35.103159 -120.624188 214 16ft 0kts
25-Sep-18 19:49 35.103159 -120.624188 214 16ft 0kts
25-Sep-18 19:50 35.103159 -120.624188 214 16ft 0kts
25-Sep-18 19:51 35.103159 -120.624188 214 16ft 0kts
25-Sep-18 19:52 35.103159 -120.624188 214 16ft 0kts
25-Sep-18 19:53 35.103159 -120.624188 214 16ft 0kts
25-Sep-18 19:54 35.103159 -120.624188 214 16ft 0kts
25-Sep-18 19:55 35.103159 -120.624188 214 16ft 0kts
25-Sep-18 19:56 35.103159 -120.624188 214 16ft 0kts
25-Sep-18 19:57 35.103159 -120.624188 214 16ft 0kts
25-Sep-18 19:58 35.103159 -120.624188 214 16ft 0kts
25-Sep-18 19:59 35.103159 -120.624188 214 16ft 0kts
25-Sep-18 20:00 35.103159 -120.624188 214 16ft 0kts
25-Sep-18 20:01 35.103159 -120.624188 214 16ft 0kts
25-Sep-18 20:02 35.103158 -120.624188 214 16ft 0kts
25-Sep-18 20:03 35.103158 -120.624188 214 16ft 0kts
25-Sep-18 20:04 35.103158 -120.624188 214 16ft 0kts
25-Sep-18 20:05 35.103158 -120.624188 214 16ft 0kts
25-Sep-18 20:06 35.103158 -120.624188 214 16ft 0kts
25-Sep-18 20:07 35.103158 -120.624188 214 16ft 0kts
25-Sep-18 20:08 35.102997 -120.624014 126 17ft 5kts
25-Sep-18 20:09 35.102111 -120.622049 358 16ft 0kts
25-Sep-18 20:10 35.102157 -120.622081 320 16ft 0kts
25-Sep-18 20:11 35.102139 -120.622188 204 16ft 4kts
25-Sep-18 20:12 35.101942 -120.622130 170 17ft 0kts
25-Sep-18 20:13 35.101942 -120.622130 170 17ft 0kts
25-Sep-18 20:14 35.101942 -120.622130 170 17ft 0kts
25-Sep-18 20:15 35.101942 -120.622130 170 17ft 0kts
25-Sep-18 20:16 35.101942 -120.622130 170 17ft 0kts
25-Sep-18 20:17 35.101942 -120.622130 170 17ft 0kts
25-Sep-18 20:18 35.101934 -120.622129 169 17ft 0kts
25-Sep-18 20:19 35.101160 -120.621546 125 17ft 15kts
25-Sep-18 20:20 35.099475 -120.619495 77 17ft 2kts
25-Sep-18 20:21 35.099535 -120.619428 32 16ft 0kts
25-Sep-18 20:22 35.102658 -120.624036 306 200ft 58kts
25-Sep-18 20:23 35.114082 -120.633780 52 1242ft 78kts
25-Sep-18 20:24 35.108360 -120.609948 88 2329ft 81kts
25-Sep-18 20:25 35.115237 -120.586754 70 3346ft 82kts
25-Sep-18 20:26 35.107678 -120.560484 118 4344ft 87kts
25-Sep-18 20:27 35.096611 -120.538546 101 5349ft 76kts
25-Sep-18 20:28 35.089173 -120.505848 96 5390ft 119kts
25-Sep-18 20:29 35.079399 -120.468831 100 5076ft 121kts
25-Sep-18 20:30 35.073263 -120.430394 98 5537ft 117kts
25-Sep-18 20:31 35.067503 -120.392140 97 5144ft 121kts
25-Sep-18 20:32 35.061424 -120.355285 98 5528ft 111kts
25-Sep-18 20:33 35.056789 -120.318123 105 5427ft 116kts
25-Sep-18 20:34 35.046543 -120.281057 112 5391ft 121kts
25-Sep-18 20:35 35.033935 -120.244388 101 5358ft 122kts
25-Sep-18 20:36 35.034919 -120.205261 78 5353ft 119kts
25-Sep-18 20:37 35.050716 -120.176669 49 5173ft 116kts
25-Sep-18 20:38 35.058628 -120.166123 48 5073ft 115kts
25-Sep-18 20:39 35.080654 -120.138783 53 5107ft 115kts
25-Sep-18 20:40 35.104559 -120.114083 59 5277ft 113kts
25-Sep-18 20:41 35.102574 -120.075800 107 5072ft 130kts
25-Sep-18 20:42 35.088398 -120.036023 113 4551ft 126kts
25-Sep-18 20:43 35.069751 -120.001792 123 3758ft 123kts
25-Sep-18 20:44 35.050791 -119.969021 125 3182ft 114kts
25-Sep-18 20:45 35.029476 -119.940602 133 3298ft 119kts
25-Sep-18 20:46 35.013534 -119.904446 100 3300ft 125kts
25-Sep-18 20:47 35.004636 -119.872550 116 3490ft 119kts
25-Sep-18 20:48 34.991444 -119.837475 115 3599ft 122kts
25-Sep-18 20:49 34.982589 -119.801758 76 3642ft 130kts
25-Sep-18 20:50 34.985790 -119.759834 107 3556ft 132kts
25-Sep-18 20:51 34.975063 -119.720326 117 3438ft 120kts
25-Sep-18 20:52 34.955480 -119.693685 160 3055ft 97kts
25-Sep-18 20:53 34.930453 -119.687171 136 3204ft 81kts
25-Sep-18 20:54 34.930671 -119.668423 12 2824ft 75kts
25-Sep-18 20:55 34.939770 -119.685404 305 2178ft 46kts
25-Sep-18 20:56 34.942996 -119.691018 16 2150ft 8kts
25-Sep-18 20:57 34.943429 -119.691413 117 2148ft 0kts
25-Sep-18 20:58 34.943429 -119.691413 117 2148ft 0kts
25-Sep-18 20:59 34.943429 -119.691413 117 2148ft 0kts
25-Sep-18 21:00 34.943429 -119.691413 117 2148ft 0kts
25-Sep-18 21:01 34.943429 -119.691413 117 2148ft 0kts
25-Sep-18 21:02 34.943429 -119.691413 117 2148ft 0kts
25-Sep-18 21:03 34.943429 -119.691413 117 2148ft 0kts
25-Sep-18 21:04 34.943429 -119.691413 117 2148ft 0kts
25-Sep-18 21:05 34.942853 -119.690287 204 2153ft 0kts
25-Sep-18 21:06 34.942853 -119.690287 204 2153ft 0kts
25-Sep-18 21:07 34.942853 -119.690287 204 2153ft 0kts
25-Sep-18 21:08 34.942853 -119.690287 204 2153ft 0kts
25-Sep-18 21:09 34.942853 -119.690287 204 2153ft 0kts

Navigation Log

Ident Type
Flight plan parsing failed, navigation log unavailable